createdAt,value
2016-12-04T00:00:09.505Z,-3.2
2016-12-04T00:00:30.047Z,-3.2
2016-12-04T00:00:50.582Z,-3.2
2016-12-04T00:01:11.167Z,-3.1
2016-12-04T00:01:31.688Z,-3.2
2016-12-04T00:01:52.219Z,-3.1
2016-12-04T00:02:12.744Z,-3.2
2016-12-04T00:02:33.317Z,-3.2
2016-12-04T00:02:53.852Z,-3.2
2016-12-04T00:03:14.423Z,-3.1
2016-12-04T00:03:34.955Z,-3.2
2016-12-04T00:03:55.460Z,-3.1
2016-12-04T00:04:16.004Z,-3.2
2016-12-04T00:04:36.563Z,-3.2
2016-12-04T00:04:57.097Z,-3.1
2016-12-04T00:05:17.614Z,-3.1
2016-12-04T00:05:38.142Z,-3.2
2016-12-04T00:05:58.667Z,-3.2
2016-12-04T00:06:19.210Z,-3.1
2016-12-04T00:06:39.755Z,-3.1
2016-12-04T00:07:00.279Z,-3.2
2016-12-04T00:07:20.799Z,-3.1
2016-12-04T00:07:41.362Z,-3.1
2016-12-04T00:08:01.893Z,-3.2
2016-12-04T00:08:22.456Z,-3.1
2016-12-04T00:08:42.977Z,-3.2
2016-12-04T00:09:03.513Z,-3.2
2016-12-04T00:09:24.030Z,-3.2
2016-12-04T00:09:44.566Z,-3.2
2016-12-04T00:10:05.095Z,-3.2
2016-12-04T00:10:25.626Z,-3.2
2016-12-04T00:10:46.164Z,-3.2
2016-12-04T00:11:06.699Z,-3.3
2016-12-04T00:11:27.210Z,-3.3
2016-12-04T00:11:47.735Z,-3.3
2016-12-04T00:12:08.273Z,-3.3
2016-12-04T00:12:28.794Z,-3.2
2016-12-04T00:12:49.320Z,-3.3
2016-12-04T00:13:09.883Z,-3.2
2016-12-04T00:13:30.430Z,-3.3
2016-12-04T00:13:50.970Z,-3.3
2016-12-04T00:14:11.512Z,-3.3
2016-12-04T00:14:32.062Z,-3.3
2016-12-04T00:14:52.593Z,-3.3
2016-12-04T00:15:13.151Z,-3.3
2016-12-04T00:15:33.666Z,-3.2
2016-12-04T00:15:54.230Z,-3.3
2016-12-04T00:16:14.783Z,-3.3
2016-12-04T00:16:35.324Z,-3.3
2016-12-04T00:16:55.839Z,-3.3
2016-12-04T00:17:16.383Z,-3.3
2016-12-04T00:17:36.904Z,-3.2
2016-12-04T00:17:57.461Z,-3.3
2016-12-04T00:18:17.988Z,-3.3
2016-12-04T00:18:38.519Z,-3.3
2016-12-04T00:18:59.037Z,-3.3
2016-12-04T00:19:19.576Z,-3.2
2016-12-04T00:19:40.125Z,-3.3
2016-12-04T00:20:00.652Z,-3.3
2016-12-04T00:20:21.191Z,-3.2
2016-12-04T00:20:41.732Z,-3.2
2016-12-04T00:21:02.311Z,-3.3
2016-12-04T00:21:22.828Z,-3.3
2016-12-04T00:21:43.376Z,-3.2
2016-12-04T00:22:03.908Z,-3.3
2016-12-04T00:22:24.449Z,-3.2
2016-12-04T00:22:44.988Z,-3.3
2016-12-04T00:23:05.538Z,-3.2
2016-12-04T00:23:26.054Z,-3.2
2016-12-04T00:23:46.575Z,-3.3
2016-12-04T00:24:07.104Z,-3.2
2016-12-04T00:24:27.652Z,-3.3
2016-12-04T00:24:48.207Z,-3.2
2016-12-04T00:25:08.748Z,-3.3
2016-12-04T00:25:29.279Z,-3.3
2016-12-04T00:25:49.796Z,-3.2
2016-12-04T00:26:10.334Z,-3.3
2016-12-04T00:26:30.864Z,-3.3
2016-12-04T00:26:51.429Z,-3.3
2016-12-04T00:27:11.961Z,-3.4
2016-12-04T00:27:32.526Z,-3.3
2016-12-04T00:27:53.042Z,-3.4
2016-12-04T00:28:13.583Z,-3.4
2016-12-04T00:28:34.111Z,-3.4
2016-12-04T00:28:54.676Z,-3.4
2016-12-04T00:29:15.199Z,-3.4
2016-12-04T00:29:35.737Z,-3.4
2016-12-04T00:29:56.279Z,-3.4
2016-12-04T00:30:16.832Z,-3.4
2016-12-04T00:30:37.355Z,-3.4
2016-12-04T00:30:57.908Z,-3.5
2016-12-04T00:31:18.446Z,-3.4
2016-12-04T00:31:38.986Z,-3.4
2016-12-04T00:31:59.517Z,-3.5
2016-12-04T00:32:20.107Z,-3.5
2016-12-04T00:32:40.655Z,-3.4
2016-12-04T00:33:01.201Z,-3.5
2016-12-04T00:33:21.732Z,-3.5
2016-12-04T00:33:42.269Z,-3.5
2016-12-04T00:34:02.824Z,-3.4
2016-12-04T00:34:23.347Z,-3.5
2016-12-04T00:34:43.899Z,-3.5
2016-12-04T00:35:04.431Z,-3.5
2016-12-04T00:35:24.952Z,-3.6
2016-12-04T00:35:45.491Z,-3.6
2016-12-04T00:36:06.041Z,-3.7
2016-12-04T00:36:26.582Z,-3.6
2016-12-04T00:36:47.138Z,-3.8
2016-12-04T00:37:07.658Z,-3.8
2016-12-04T00:37:28.178Z,-3.7
2016-12-04T00:37:48.715Z,-3.7
2016-12-04T00:38:09.241Z,-3.7
2016-12-04T00:38:29.765Z,-3.6
2016-12-04T00:38:50.286Z,-3.6
2016-12-04T00:39:10.850Z,-3.7
2016-12-04T00:39:31.397Z,-3.6
2016-12-04T00:39:51.923Z,-3.7
2016-12-04T00:40:12.480Z,-3.6
2016-12-04T00:40:33.003Z,-3.6
2016-12-04T00:40:53.570Z,-3.6
2016-12-04T00:41:14.104Z,-3.6
2016-12-04T00:41:34.640Z,-3.5
2016-12-04T00:41:55.176Z,-3.5
2016-12-04T00:42:15.720Z,-3.6
2016-12-04T00:42:36.265Z,-3.5
2016-12-04T00:42:56.896Z,-3.5
2016-12-04T00:43:17.421Z,-3.5
2016-12-04T00:43:37.997Z,-3.5
2016-12-04T00:43:58.523Z,-3.5
2016-12-04T00:44:19.056Z,-3.5
2016-12-04T00:44:39.585Z,-3.5
2016-12-04T00:45:00.110Z,-3.5
2016-12-04T00:45:20.663Z,-3.5
2016-12-04T00:45:41.199Z,-3.5
2016-12-04T00:46:01.719Z,-3.5
2016-12-04T00:46:22.270Z,-3.5
2016-12-04T00:46:42.801Z,-3.5
2016-12-04T00:47:03.343Z,-3.5
2016-12-04T00:47:23.881Z,-3.5
2016-12-04T00:47:44.400Z,-3.4
2016-12-04T00:48:04.939Z,-3.4
2016-12-04T00:48:25.481Z,-3.4
2016-12-04T00:48:46.010Z,-3.5
2016-12-04T00:49:06.563Z,-3.4
2016-12-04T00:49:27.103Z,-3.4
2016-12-04T00:49:47.647Z,-3.4
2016-12-04T00:50:08.171Z,-3.4
2016-12-04T00:50:28.717Z,-3.5
2016-12-04T00:50:49.264Z,-3.5
2016-12-04T00:51:09.793Z,-3.5
2016-12-04T00:51:30.343Z,-3.5
2016-12-04T00:51:50.875Z,-3.5
2016-12-04T00:52:11.400Z,-3.5
2016-12-04T00:52:31.931Z,-3.5
2016-12-04T00:52:52.461Z,-3.6
2016-12-04T00:53:12.984Z,-3.5
2016-12-04T00:53:33.518Z,-3.5
2016-12-04T00:53:54.057Z,-3.5
2016-12-04T00:54:14.584Z,-3.5
2016-12-04T00:54:35.101Z,-3.5
2016-12-04T00:54:55.624Z,-3.4
2016-12-04T00:55:16.176Z,-3.4
2016-12-04T00:55:36.705Z,-3.5
2016-12-04T00:55:57.242Z,-3.5
2016-12-04T00:56:17.781Z,-3.4
2016-12-04T00:56:38.314Z,-3.4
2016-12-04T00:56:58.862Z,-3.3
2016-12-04T00:57:19.397Z,-3.4
2016-12-04T00:57:39.921Z,-3.4
2016-12-04T00:58:00.474Z,-3.4
2016-12-04T00:58:21.019Z,-3.4
2016-12-04T00:58:41.553Z,-3.4
2016-12-04T00:59:02.115Z,-3.4
2016-12-04T00:59:22.626Z,-3.4
2016-12-04T00:59:43.155Z,-3.4
2016-12-04T01:00:03.683Z,-3.5
2016-12-04T01:00:24.232Z,-3.4
2016-12-04T01:00:44.749Z,-3.4
2016-12-04T01:01:05.263Z,-3.4
2016-12-04T01:01:25.811Z,-3.4
2016-12-04T01:01:46.359Z,-3.5
2016-12-04T01:02:06.887Z,-3.5
2016-12-04T01:02:27.435Z,-3.5
2016-12-04T01:02:47.977Z,-3.4
2016-12-04T01:03:08.506Z,-3.4
2016-12-04T01:03:29.052Z,-3.4
2016-12-04T01:03:49.576Z,-3.5
2016-12-04T01:04:10.111Z,-3.5
2016-12-04T01:04:30.642Z,-3.5
2016-12-04T01:04:51.188Z,-3.5
2016-12-04T01:05:11.731Z,-3.5
2016-12-04T01:05:32.258Z,-3.5
2016-12-04T01:05:52.798Z,-3.5
2016-12-04T01:06:13.335Z,-3.5
2016-12-04T01:06:33.858Z,-3.5
2016-12-04T01:06:54.377Z,-3.5
2016-12-04T01:07:14.923Z,-3.5
2016-12-04T01:07:35.465Z,-3.6
2016-12-04T01:07:56.000Z,-3.6
2016-12-04T01:08:16.533Z,-3.5
2016-12-04T01:08:37.057Z,-3.5
2016-12-04T01:08:57.611Z,-3.6
2016-12-04T01:09:18.146Z,-3.6
2016-12-04T01:09:38.680Z,-3.6
2016-12-04T01:09:59.219Z,-3.5
2016-12-04T01:10:19.737Z,-3.6
2016-12-04T01:10:40.277Z,-3.5
2016-12-04T01:11:00.827Z,-3.6
2016-12-04T01:11:21.364Z,-3.6
2016-12-04T01:11:41.884Z,-3.6
2016-12-04T01:12:02.432Z,-3.6
2016-12-04T01:12:22.979Z,-3.6
2016-12-04T01:12:43.507Z,-3.6
2016-12-04T01:13:04.034Z,-3.5
2016-12-04T01:13:24.573Z,-3.6
2016-12-04T01:13:45.108Z,-3.5
2016-12-04T01:14:05.667Z,-3.5
2016-12-04T01:14:26.215Z,-3.6
2016-12-04T01:14:46.746Z,-3.6
2016-12-04T01:15:07.301Z,-3.6
2016-12-04T01:15:27.835Z,-3.6
2016-12-04T01:15:48.384Z,-3.6
2016-12-04T01:16:08.913Z,-3.6
2016-12-04T01:16:29.467Z,-3.6
2016-12-04T01:16:50.031Z,-3.7
2016-12-04T01:17:10.578Z,-3.6
2016-12-04T01:17:31.136Z,-3.6
2016-12-04T01:17:51.681Z,-3.6
2016-12-04T01:18:12.217Z,-3.6
2016-12-04T01:18:32.741Z,-3.6
2016-12-04T01:18:53.261Z,-3.6
2016-12-04T01:19:13.814Z,-3.6
2016-12-04T01:19:34.346Z,-3.6
2016-12-04T01:19:54.898Z,-3.6
2016-12-04T01:20:15.463Z,-3.6
2016-12-04T01:20:35.990Z,-3.5
2016-12-04T01:20:56.582Z,-3.6
2016-12-04T01:21:17.135Z,-3.6
2016-12-04T01:21:37.704Z,-3.6
2016-12-04T01:21:58.241Z,-3.7
2016-12-04T01:22:18.766Z,-3.7
2016-12-04T01:22:39.306Z,-3.6
2016-12-04T01:22:59.833Z,-3.6
2016-12-04T01:23:20.354Z,-3.6
2016-12-04T01:23:40.926Z,-3.6
2016-12-04T01:24:01.471Z,-3.7
2016-12-04T01:24:22.044Z,-3.5
2016-12-04T01:24:42.574Z,-3.6
2016-12-04T01:25:03.098Z,-3.7
2016-12-04T01:25:23.627Z,-3.6
2016-12-04T01:25:44.182Z,-3.6
2016-12-04T01:26:04.725Z,-3.7
2016-12-04T01:26:25.256Z,-3.7
2016-12-04T01:26:45.788Z,-3.7
2016-12-04T01:27:06.316Z,-3.8
2016-12-04T01:27:26.880Z,-3.7
2016-12-04T01:27:47.430Z,-3.7
2016-12-04T01:28:07.950Z,-3.8
2016-12-04T01:28:28.473Z,-3.7
2016-12-04T01:28:49.022Z,-3.7
2016-12-04T01:29:09.562Z,-3.7
2016-12-04T01:29:30.108Z,-3.7
2016-12-04T01:29:50.640Z,-3.7
2016-12-04T01:30:11.172Z,-3.8
2016-12-04T01:30:31.694Z,-3.8
2016-12-04T01:30:52.221Z,-3.7
2016-12-04T01:31:12.769Z,-3.7
2016-12-04T01:31:33.301Z,-3.7
2016-12-04T01:31:53.832Z,-3.7
2016-12-04T01:32:14.354Z,-3.8
2016-12-04T01:32:34.897Z,-3.8
2016-12-04T01:32:55.446Z,-3.7
2016-12-04T01:33:15.972Z,-3.7
2016-12-04T01:33:36.520Z,-3.7
2016-12-04T01:33:57.051Z,-3.7
2016-12-04T01:34:17.601Z,-3.7
2016-12-04T01:34:38.127Z,-3.7
2016-12-04T01:34:58.664Z,-3.7
2016-12-04T01:35:19.198Z,-3.7
2016-12-04T01:35:39.742Z,-3.7
2016-12-04T01:36:00.266Z,-3.8
2016-12-04T01:36:20.801Z,-3.7
2016-12-04T01:36:41.336Z,-3.7
2016-12-04T01:37:01.864Z,-3.7
2016-12-04T01:37:22.424Z,-3.7
2016-12-04T01:37:42.939Z,-3.8
2016-12-04T01:38:03.475Z,-3.7
2016-12-04T01:38:24.031Z,-3.8
2016-12-04T01:38:44.572Z,-3.6
2016-12-04T01:39:05.131Z,-3.6
2016-12-04T01:39:25.657Z,-3.7
2016-12-04T01:39:46.180Z,-3.6
2016-12-04T01:40:06.731Z,-3.6
2016-12-04T01:40:27.271Z,-3.6
2016-12-04T01:40:47.819Z,-3.6
2016-12-04T01:41:08.347Z,-3.6
2016-12-04T01:41:28.877Z,-3.6
2016-12-04T01:41:49.386Z,-3.6
2016-12-04T01:42:09.900Z,-3.6
2016-12-04T01:42:30.451Z,-3.6
2016-12-04T01:42:51.007Z,-3.5
2016-12-04T01:43:11.549Z,-3.6
2016-12-04T01:43:32.068Z,-3.6
2016-12-04T01:43:52.629Z,-3.6
2016-12-04T01:44:13.141Z,-3.6
2016-12-04T01:44:33.682Z,-3.5
2016-12-04T01:44:54.208Z,-3.5
2016-12-04T01:45:14.751Z,-3.5
2016-12-04T01:45:35.266Z,-3.5
2016-12-04T01:45:55.806Z,-3.6
2016-12-04T01:46:16.359Z,-3.5
2016-12-04T01:46:36.876Z,-3.5
2016-12-04T01:46:57.407Z,-3.5
2016-12-04T01:47:17.946Z,-3.5
2016-12-04T01:47:38.473Z,-3.6
2016-12-04T01:47:59.001Z,-3.6
2016-12-04T01:48:19.532Z,-3.6
2016-12-04T01:48:40.063Z,-3.5
2016-12-04T01:49:00.586Z,-3.5
2016-12-04T01:49:21.155Z,-3.6
2016-12-04T01:49:41.705Z,-3.6
2016-12-04T01:50:02.227Z,-3.6
2016-12-04T01:50:22.758Z,-3.5
2016-12-04T01:50:43.290Z,-3.6
2016-12-04T01:51:03.821Z,-3.5
2016-12-04T01:51:24.359Z,-3.5
2016-12-04T01:51:44.909Z,-3.6
2016-12-04T01:52:05.436Z,-3.5
2016-12-04T01:52:25.975Z,-3.6
2016-12-04T01:52:46.492Z,-3.6
2016-12-04T01:53:07.025Z,-3.7
2016-12-04T01:53:27.548Z,-3.7
2016-12-04T01:53:48.073Z,-3.8
2016-12-04T01:54:08.618Z,-3.7
2016-12-04T01:54:29.139Z,-3.7
2016-12-04T01:54:49.669Z,-3.7
2016-12-04T01:55:10.199Z,-3.7
2016-12-04T01:55:30.742Z,-3.7
2016-12-04T01:55:51.268Z,-3.7
2016-12-04T01:56:11.798Z,-3.7
2016-12-04T01:56:32.333Z,-3.6
2016-12-04T01:56:52.873Z,-3.8
2016-12-04T01:57:13.415Z,-3.8
2016-12-04T01:57:33.972Z,-3.8
2016-12-04T01:57:54.512Z,-3.8
2016-12-04T01:58:15.029Z,-3.8
2016-12-04T01:58:35.562Z,-3.8
2016-12-04T01:58:56.088Z,-3.8
2016-12-04T01:59:16.617Z,-3.8
2016-12-04T01:59:37.143Z,-3.8
2016-12-04T01:59:57.671Z,-3.8
2016-12-04T02:00:18.208Z,-3.8
2016-12-04T02:00:38.753Z,-3.8
2016-12-04T02:00:59.279Z,-3.8
2016-12-04T02:01:19.808Z,-3.9
2016-12-04T02:01:40.331Z,-3.9
2016-12-04T02:02:00.850Z,-3.9
2016-12-04T02:02:21.355Z,-3.8
2016-12-04T02:02:41.877Z,-3.8
2016-12-04T02:03:02.394Z,-3.9
2016-12-04T02:03:22.941Z,-3.9
2016-12-04T02:03:43.495Z,-4
2016-12-04T02:04:04.022Z,-3.9
2016-12-04T02:04:24.556Z,-3.8
2016-12-04T02:04:45.106Z,-3.9
2016-12-04T02:05:05.638Z,-3.9
2016-12-04T02:05:26.171Z,-4
2016-12-04T02:05:46.686Z,-3.9
2016-12-04T02:06:07.232Z,-3.9
2016-12-04T02:06:27.758Z,-4
2016-12-04T02:06:48.295Z,-4
2016-12-04T02:07:08.846Z,-3.9
2016-12-04T02:07:29.385Z,-4
2016-12-04T02:07:49.925Z,-4
2016-12-04T02:08:10.433Z,-4
2016-12-04T02:08:30.952Z,-4
2016-12-04T02:08:51.478Z,-4
2016-12-04T02:09:12.043Z,-3.9
2016-12-04T02:09:32.575Z,-3.9
2016-12-04T02:09:53.108Z,-3.9
2016-12-04T02:10:13.620Z,-4
2016-12-04T02:10:34.168Z,-3.8
2016-12-04T02:10:54.694Z,-3.9
2016-12-04T02:11:15.229Z,-3.8
2016-12-04T02:11:35.794Z,-3.8
2016-12-04T02:11:56.319Z,-3.9
2016-12-04T02:12:16.864Z,-3.8
2016-12-04T02:12:37.411Z,-3.8
2016-12-04T02:12:57.955Z,-3.8
2016-12-04T02:13:18.504Z,-3.8
2016-12-04T02:13:39.048Z,-3.7
2016-12-04T02:13:59.574Z,-3.7
2016-12-04T02:14:20.176Z,-3.7
2016-12-04T02:14:40.694Z,-3.8
2016-12-04T02:15:01.220Z,-3.8
2016-12-04T02:15:21.752Z,-3.8
2016-12-04T02:15:42.293Z,-3.7
2016-12-04T02:16:02.819Z,-3.8
2016-12-04T02:16:23.365Z,-3.8
2016-12-04T02:16:43.907Z,-3.8
2016-12-04T02:17:04.418Z,-3.8
2016-12-04T02:17:24.958Z,-3.9
2016-12-04T02:17:45.487Z,-3.8
2016-12-04T02:18:06.024Z,-3.8
2016-12-04T02:18:26.546Z,-3.9
2016-12-04T02:18:47.077Z,-3.8
2016-12-04T02:19:07.618Z,-3.9
2016-12-04T02:19:28.143Z,-3.9
2016-12-04T02:19:48.684Z,-3.9
2016-12-04T02:20:09.243Z,-3.9
2016-12-04T02:20:29.765Z,-3.9
2016-12-04T02:20:50.279Z,-3.8
2016-12-04T02:21:10.795Z,-3.9
2016-12-04T02:21:31.319Z,-3.9
2016-12-04T02:21:51.868Z,-3.8
2016-12-04T02:22:12.408Z,-3.9
2016-12-04T02:22:32.933Z,-3.9
2016-12-04T02:22:53.471Z,-3.8
2016-12-04T02:23:14.007Z,-3.9
2016-12-04T02:23:34.556Z,-3.9
2016-12-04T02:23:55.102Z,-3.8
2016-12-04T02:24:15.646Z,-3.9
2016-12-04T02:24:36.172Z,-3.9
2016-12-04T02:24:56.722Z,-4
2016-12-04T02:25:17.247Z,-4
2016-12-04T02:25:37.800Z,-4.1
2016-12-04T02:25:58.335Z,-4.1
2016-12-04T02:26:18.860Z,-4.1
2016-12-04T02:26:39.443Z,-4.1
2016-12-04T02:26:59.980Z,-4.1
2016-12-04T02:27:20.510Z,-4.2
2016-12-04T02:27:41.060Z,-4.2
2016-12-04T02:28:01.573Z,-4.1
2016-12-04T02:28:22.113Z,-4.2
2016-12-04T02:28:42.646Z,-4.2
2016-12-04T02:29:03.172Z,-4.2
2016-12-04T02:29:23.706Z,-4.1
2016-12-04T02:29:44.237Z,-4.2
2016-12-04T02:30:04.810Z,-4.2
2016-12-04T02:30:25.344Z,-4.1
2016-12-04T02:30:45.888Z,-4.1
2016-12-04T02:31:06.421Z,-4.1
2016-12-04T02:31:26.936Z,-4.1
2016-12-04T02:31:47.466Z,-4.1
2016-12-04T02:32:07.999Z,-4.1
2016-12-04T02:32:28.563Z,-4
2016-12-04T02:32:49.119Z,-4
2016-12-04T02:33:09.643Z,-4
2016-12-04T02:33:33.004Z,-4.1
2016-12-04T02:33:53.551Z,-4.1
2016-12-04T02:34:14.070Z,-4
2016-12-04T02:34:34.632Z,-4
2016-12-04T02:34:55.148Z,-4
2016-12-04T02:35:15.678Z,-3.9
2016-12-04T02:35:36.207Z,-4
2016-12-04T02:35:56.747Z,-4
2016-12-04T02:36:17.279Z,-3.9
2016-12-04T02:36:37.817Z,-4
2016-12-04T02:36:58.345Z,-4
2016-12-04T02:37:18.882Z,-4
2016-12-04T02:37:39.422Z,-3.9
2016-12-04T02:37:59.982Z,-4
2016-12-04T02:38:20.504Z,-4
2016-12-04T02:38:41.039Z,-4.1
2016-12-04T02:39:01.555Z,-4.1
2016-12-04T02:39:22.085Z,-4.1
2016-12-04T02:39:42.602Z,-4
2016-12-04T02:40:03.138Z,-4
2016-12-04T02:40:23.698Z,-4.1
2016-12-04T02:40:44.225Z,-4
2016-12-04T02:41:04.790Z,-4.1
2016-12-04T02:41:25.350Z,-4.1
2016-12-04T02:41:45.892Z,-4
2016-12-04T02:42:06.426Z,-4.1
2016-12-04T02:42:26.965Z,-4.1
2016-12-04T02:42:47.536Z,-4
2016-12-04T02:43:08.094Z,-4
2016-12-04T02:43:28.632Z,-4.1
2016-12-04T02:43:49.185Z,-4
2016-12-04T02:44:09.708Z,-4
2016-12-04T02:44:30.242Z,-4.1
2016-12-04T02:44:50.770Z,-4
2016-12-04T02:45:11.306Z,-4.1
2016-12-04T02:45:31.834Z,-4.1
2016-12-04T02:45:52.364Z,-4.1
2016-12-04T02:46:12.923Z,-4.1
2016-12-04T02:46:33.471Z,-4.1
2016-12-04T02:46:54.023Z,-4.1
2016-12-04T02:47:14.595Z,-4
2016-12-04T02:47:35.126Z,-4.1
2016-12-04T02:47:55.653Z,-4.2
2016-12-04T02:48:16.183Z,-4.1
2016-12-04T02:48:36.755Z,-4.1
2016-12-04T02:48:57.293Z,-4
2016-12-04T02:49:17.822Z,-4.2
2016-12-04T02:49:38.372Z,-4.1
2016-12-04T02:49:58.921Z,-4.1
2016-12-04T02:50:19.485Z,-4.1
2016-12-04T02:50:40.016Z,-4.1
2016-12-04T02:51:00.553Z,-4
2016-12-04T02:51:21.093Z,-4.1
2016-12-04T02:51:41.621Z,-4.1
2016-12-04T02:52:02.139Z,-4.1
2016-12-04T02:52:22.688Z,-4.1
2016-12-04T02:52:43.238Z,-4.1
2016-12-04T02:53:03.759Z,-4.1
2016-12-04T02:53:24.295Z,-4.1
2016-12-04T02:53:44.815Z,-4
2016-12-04T02:54:05.334Z,-4.1
2016-12-04T02:54:25.878Z,-4.1
2016-12-04T02:54:46.404Z,-4
2016-12-04T02:55:06.939Z,-4.1
2016-12-04T02:55:27.474Z,-4.1
2016-12-04T02:55:48.001Z,-4.1
2016-12-04T02:56:08.525Z,-4.1
2016-12-04T02:56:29.044Z,-4.1
2016-12-04T02:56:49.593Z,-4.1
2016-12-04T02:57:10.132Z,-4.1
2016-12-04T02:57:30.662Z,-4.2
2016-12-04T02:57:51.189Z,-4.1
2016-12-04T02:58:11.710Z,-4.2
2016-12-04T02:58:32.234Z,-4.2
2016-12-04T02:58:52.750Z,-4.3
2016-12-04T02:59:13.268Z,-4.2
2016-12-04T02:59:33.799Z,-4.2
2016-12-04T02:59:54.323Z,-4.1
2016-12-04T03:00:14.852Z,-4.2
2016-12-04T03:00:35.370Z,-4.2
2016-12-04T03:00:55.898Z,-4.2
2016-12-04T03:01:16.430Z,-4.3
2016-12-04T03:01:36.970Z,-4.2
2016-12-04T03:01:57.501Z,-4.3
2016-12-04T03:02:18.064Z,-4.2
2016-12-04T03:02:38.607Z,-4.3
2016-12-04T03:02:59.172Z,-4.3
2016-12-04T03:03:19.711Z,-4.3
2016-12-04T03:03:40.290Z,-4.3
2016-12-04T03:04:00.822Z,-4.2
2016-12-04T03:04:21.343Z,-4.3
2016-12-04T03:04:42.112Z,-4.3
2016-12-04T03:05:02.655Z,-4.3
2016-12-04T03:05:23.171Z,-4.3
2016-12-04T03:05:43.696Z,-4.2
2016-12-04T03:06:04.222Z,-4.3
2016-12-04T03:06:24.757Z,-4.2
2016-12-04T03:06:45.275Z,-4.3
2016-12-04T03:07:05.802Z,-4.3
2016-12-04T03:07:26.352Z,-4.3
2016-12-04T03:07:46.887Z,-4.3
2016-12-04T03:08:07.425Z,-4.3
2016-12-04T03:08:27.960Z,-4.3
2016-12-04T03:08:48.468Z,-4.3
2016-12-04T03:09:08.983Z,-4.4
2016-12-04T03:09:29.506Z,-4.3
2016-12-04T03:09:50.055Z,-4.3
2016-12-04T03:10:10.583Z,-4.3
2016-12-04T03:10:31.113Z,-4.3
2016-12-04T03:10:51.639Z,-4.3
2016-12-04T03:11:12.178Z,-4.3
2016-12-04T03:11:32.716Z,-4.4
2016-12-04T03:11:53.254Z,-4.3
2016-12-04T03:12:13.789Z,-4.3
2016-12-04T03:12:34.313Z,-4.2
2016-12-04T03:12:54.867Z,-4.3
2016-12-04T03:13:15.399Z,-4.3
2016-12-04T03:13:35.955Z,-4.2
2016-12-04T03:13:56.505Z,-4.2
2016-12-04T03:14:17.069Z,-4.2
2016-12-04T03:14:37.595Z,-4.2
2016-12-04T03:14:58.115Z,-4.2
2016-12-04T03:15:18.666Z,-4.2
2016-12-04T03:15:39.213Z,-4.1
2016-12-04T03:15:59.740Z,-4.2
2016-12-04T03:16:20.278Z,-4.2
2016-12-04T03:16:40.811Z,-4.2
2016-12-04T03:17:01.329Z,-4.2
2016-12-04T03:17:21.861Z,-4.2
2016-12-04T03:17:42.378Z,-4.1
2016-12-04T03:18:02.902Z,-4.2
2016-12-04T03:18:23.423Z,-4.1
2016-12-04T03:18:43.955Z,-4.2
2016-12-04T03:19:04.479Z,-4.2
2016-12-04T03:19:25.023Z,-4.2
2016-12-04T03:19:45.557Z,-4.2
2016-12-04T03:20:06.085Z,-4.2
2016-12-04T03:20:26.597Z,-4.2
2016-12-04T03:20:47.123Z,-4.1
2016-12-04T03:21:07.657Z,-4.2
2016-12-04T03:21:28.193Z,-4.2
2016-12-04T03:21:48.723Z,-4.2
2016-12-04T03:22:09.241Z,-4.2
2016-12-04T03:22:29.781Z,-4.2
2016-12-04T03:22:50.326Z,-4.2
2016-12-04T03:23:10.846Z,-4.1
2016-12-04T03:23:31.372Z,-4.1
2016-12-04T03:23:51.914Z,-4.2
2016-12-04T03:24:12.441Z,-4.2
2016-12-04T03:24:32.973Z,-4.2
2016-12-04T03:24:53.505Z,-4.2
2016-12-04T03:25:14.040Z,-4.1
2016-12-04T03:25:34.565Z,-4.1
2016-12-04T03:25:55.098Z,-4.1
2016-12-04T03:26:15.640Z,-4.1
2016-12-04T03:26:36.187Z,-4
2016-12-04T03:26:56.717Z,-4
2016-12-04T03:27:17.275Z,-4.1
2016-12-04T03:27:37.799Z,-4
2016-12-04T03:27:58.339Z,-4.1
2016-12-04T03:28:18.867Z,-4
2016-12-04T03:28:39.409Z,-4
2016-12-04T03:28:59.944Z,-3.9
2016-12-04T03:29:20.473Z,-4
2016-12-04T03:29:40.998Z,-4.1
2016-12-04T03:30:01.522Z,-4.1
2016-12-04T03:30:22.060Z,-4.1
2016-12-04T03:30:42.591Z,-4.1
2016-12-04T03:31:03.109Z,-4.1
2016-12-04T03:31:23.659Z,-4
2016-12-04T03:31:44.197Z,-4
2016-12-04T03:32:04.754Z,-4
2016-12-04T03:32:25.288Z,-4
2016-12-04T03:32:45.819Z,-4
2016-12-04T03:33:06.339Z,-4
2016-12-04T03:33:26.867Z,-4
2016-12-04T03:33:47.391Z,-4
2016-12-04T03:34:07.921Z,-4
2016-12-04T03:34:28.449Z,-4
2016-12-04T03:34:48.993Z,-4
2016-12-04T03:35:09.520Z,-4
2016-12-04T03:35:30.066Z,-4.1
2016-12-04T03:35:50.641Z,-4.1
2016-12-04T03:36:11.213Z,-4
2016-12-04T03:36:31.753Z,-4.1
2016-12-04T03:36:52.307Z,-4.1
2016-12-04T03:37:12.823Z,-4.1
2016-12-04T03:37:33.370Z,-4.2
2016-12-04T03:37:53.947Z,-4.1
2016-12-04T03:38:14.470Z,-4.1
2016-12-04T03:38:34.993Z,-4
2016-12-04T03:38:55.534Z,-4.1
2016-12-04T03:39:16.051Z,-4.2
2016-12-04T03:39:36.575Z,-4.1
2016-12-04T03:39:57.114Z,-4.3
2016-12-04T03:40:17.640Z,-4.1
2016-12-04T03:40:38.169Z,-4.2
2016-12-04T03:40:58.710Z,-4.1
2016-12-04T03:41:19.276Z,-4.2
2016-12-04T03:41:39.799Z,-4.2
2016-12-04T03:42:00.349Z,-4.1
2016-12-04T03:42:20.870Z,-4.2
2016-12-04T03:42:41.413Z,-4.2
2016-12-04T03:43:01.957Z,-4.2
2016-12-04T03:43:22.493Z,-4.1
2016-12-04T03:43:43.020Z,-4.2
2016-12-04T03:44:03.535Z,-4.2
2016-12-04T03:44:24.055Z,-4.3
2016-12-04T03:44:44.594Z,-4.3
2016-12-04T03:45:05.109Z,-4.3
2016-12-04T03:45:25.631Z,-4.3
2016-12-04T03:45:46.158Z,-4.2
2016-12-04T03:46:06.726Z,-4.3
2016-12-04T03:46:27.249Z,-4.2
2016-12-04T03:46:47.785Z,-4.3
2016-12-04T03:47:08.361Z,-4.2
2016-12-04T03:47:28.898Z,-4.2
2016-12-04T03:47:49.421Z,-4.2
2016-12-04T03:48:09.944Z,-4.2
2016-12-04T03:48:30.469Z,-4.1
2016-12-04T03:48:50.999Z,-4.2
2016-12-04T03:49:11.542Z,-4.1
2016-12-04T03:49:32.081Z,-4.1
2016-12-04T03:49:52.649Z,-4.1
2016-12-04T03:50:13.172Z,-4.2
2016-12-04T03:50:33.688Z,-4.2
2016-12-04T03:50:54.215Z,-4.2
2016-12-04T03:51:14.760Z,-4.2
2016-12-04T03:51:35.289Z,-4.1
2016-12-04T03:51:55.807Z,-4.1
2016-12-04T03:52:16.339Z,-4.2
2016-12-04T03:52:36.863Z,-4.1
2016-12-04T03:52:57.392Z,-4.2
2016-12-04T03:53:17.943Z,-4.1
2016-12-04T03:53:38.470Z,-4.1
2016-12-04T03:53:59.015Z,-4.1
2016-12-04T03:54:19.543Z,-4.1
2016-12-04T03:54:40.059Z,-4.1
2016-12-04T03:55:00.580Z,-4.1
2016-12-04T03:55:21.130Z,-4.1
2016-12-04T03:55:41.673Z,-4.1
2016-12-04T03:56:02.227Z,-4
2016-12-04T03:56:22.786Z,-4
2016-12-04T03:56:43.333Z,-4.1
2016-12-04T03:57:03.866Z,-4
2016-12-04T03:57:24.395Z,-4
2016-12-04T03:57:44.913Z,-4.1
2016-12-04T03:58:05.519Z,-4.1
2016-12-04T03:58:26.030Z,-4.1
2016-12-04T03:58:46.569Z,-4.1
2016-12-04T03:59:07.130Z,-4
2016-12-04T03:59:27.667Z,-4.1
2016-12-04T03:59:48.203Z,-4.1
2016-12-04T04:00:08.745Z,-4.1
2016-12-04T04:00:29.313Z,-4.1
2016-12-04T04:00:49.872Z,-4.2
2016-12-04T04:01:10.421Z,-4.1
2016-12-04T04:01:30.967Z,-4
2016-12-04T04:01:51.504Z,-4.1
2016-12-04T04:02:12.037Z,-4.1
2016-12-04T04:02:32.555Z,-4.1
2016-12-04T04:02:53.084Z,-4.1
2016-12-04T04:03:13.649Z,-4.1
2016-12-04T04:03:34.211Z,-4.1
2016-12-04T04:03:54.750Z,-4.1
2016-12-04T04:04:15.603Z,-4.1
2016-12-04T04:04:36.127Z,-4.1
2016-12-04T04:04:56.653Z,-4.1
2016-12-04T04:05:17.168Z,-4.2
2016-12-04T04:05:37.691Z,-4.2
2016-12-04T04:05:58.230Z,-4.2
2016-12-04T04:06:18.765Z,-4.2
2016-12-04T04:06:39.309Z,-4.2
2016-12-04T04:06:59.830Z,-4.2
2016-12-04T04:07:20.358Z,-4.3
2016-12-04T04:07:40.912Z,-4.2
2016-12-04T04:08:01.435Z,-4.2
2016-12-04T04:08:21.976Z,-4.3
2016-12-04T04:08:42.525Z,-4.3
2016-12-04T04:09:03.060Z,-4.2
2016-12-04T04:09:23.596Z,-4.3
2016-12-04T04:09:44.158Z,-4.3
2016-12-04T04:10:04.715Z,-4.3
2016-12-04T04:10:25.242Z,-4.2
2016-12-04T04:10:45.786Z,-4.3
2016-12-04T04:11:06.312Z,-4.3
2016-12-04T04:11:26.852Z,-4.3
2016-12-04T04:11:47.395Z,-4.4
2016-12-04T04:12:07.928Z,-4.4
2016-12-04T04:12:28.451Z,-4.4
2016-12-04T04:12:48.977Z,-4.5
2016-12-04T04:13:09.540Z,-4.5
2016-12-04T04:13:30.061Z,-4.5
2016-12-04T04:13:50.597Z,-4.5
2016-12-04T04:14:11.119Z,-4.5
2016-12-04T04:14:31.651Z,-4.5
2016-12-04T04:14:52.185Z,-4.6
2016-12-04T04:15:12.719Z,-4.6
2016-12-04T04:15:33.257Z,-4.5
2016-12-04T04:15:53.789Z,-4.5
2016-12-04T04:16:14.323Z,-4.5
2016-12-04T04:16:34.855Z,-4.6
2016-12-04T04:16:55.383Z,-4.6
2016-12-04T04:17:15.921Z,-4.6
2016-12-04T04:17:36.451Z,-4.6
2016-12-04T04:17:56.985Z,-4.6
2016-12-04T04:18:17.525Z,-4.6
2016-12-04T04:18:38.049Z,-4.7
2016-12-04T04:18:58.601Z,-4.6
2016-12-04T04:19:19.141Z,-4.7
2016-12-04T04:19:39.669Z,-4.7
2016-12-04T04:20:00.203Z,-4.7
2016-12-04T04:20:20.741Z,-4.6
2016-12-04T04:20:41.268Z,-4.7
2016-12-04T04:21:01.803Z,-4.6
2016-12-04T04:21:22.372Z,-4.6
2016-12-04T04:21:42.897Z,-4.6
2016-12-04T04:22:03.455Z,-4.6
2016-12-04T04:22:23.989Z,-4.5
2016-12-04T04:22:44.544Z,-4.6
2016-12-04T04:23:05.077Z,-4.6
2016-12-04T04:23:25.616Z,-4.5
2016-12-04T04:23:46.139Z,-4.5
2016-12-04T04:24:06.678Z,-4.5
2016-12-04T04:24:27.209Z,-4.5
2016-12-04T04:24:47.730Z,-4.5
2016-12-04T04:25:08.284Z,-4.5
2016-12-04T04:25:28.833Z,-4.5
2016-12-04T04:25:49.347Z,-4.5
2016-12-04T04:26:09.902Z,-4.5
2016-12-04T04:26:30.454Z,-4.5
2016-12-04T04:26:50.975Z,-4.5
2016-12-04T04:27:11.514Z,-4.5
2016-12-04T04:27:32.053Z,-4.5
2016-12-04T04:27:52.591Z,-4.6
2016-12-04T04:28:13.124Z,-4.6
2016-12-04T04:28:33.655Z,-4.7
2016-12-04T04:28:54.180Z,-4.5
2016-12-04T04:29:14.696Z,-4.5
2016-12-04T04:29:35.241Z,-4.5
2016-12-04T04:29:55.805Z,-4.7
2016-12-04T04:30:16.359Z,-4.5
2016-12-04T04:30:36.882Z,-4.6
2016-12-04T04:30:57.419Z,-4.7
2016-12-04T04:31:17.945Z,-4.6
2016-12-04T04:31:38.468Z,-4.5
2016-12-04T04:31:58.985Z,-4.6
2016-12-04T04:32:19.532Z,-4.6
2016-12-04T04:32:40.083Z,-4.6
2016-12-04T04:33:00.642Z,-4.6
2016-12-04T04:33:21.174Z,-4.6
2016-12-04T04:33:41.724Z,-4.6
2016-12-04T04:34:02.259Z,-4.6
2016-12-04T04:34:22.787Z,-4.6
2016-12-04T04:34:43.315Z,-4.6